Flight Track Log - Related Links

Times and Time Zones

All times are in EDT time to prevent confusion due to time zone crossing. See the EGF3040 flight status page for this flight to view local times or setup timezone preferences in your user account.

Time Position Orientation Groundspeed Altitude Reporting Facility
EDT Latitude Longitude Course Direction KTS MPH feet Rate Location/Type
Sun 12:29:06 PM 42.0333 -87.9167 90° East 202 232 2,500  Level Chicago TRACON
Sun 12:30:00 PM 41.9612 -87.4781 98° East  Level FlightAware Approximate
Sun 12:30:09 PM 42.0781 -87.8606 43° Northeast 212 244 4,300  Level Chicago Center
Sun 12:31:00 PM 41.9480 -87.3384 95° East  Level FlightAware Approximate
Sun 12:31:12 PM 42.1100 -87.7783 62° Northeast 262 302 6,100  Level Chicago Center
Sun 12:32:00 PM 41.9380 -87.1983 95° East  Level FlightAware Approximate
Sun 12:32:14 PM 42.1108 -87.6756 89° East 274 315 8,200  Level Chicago Center
Sun 12:33:00 PM 41.9333 -87.0579 90° East  Level FlightAware Approximate
Sun 12:33:16 PM 42.0928 -87.5672 103° East 300 345 10,100  Level Chicago Center
Sun 12:34:00 PM 41.9333 -86.9177 90° East  Level FlightAware Approximate
Sun 12:34:18 PM 42.0592 -87.4608 113° Southeast 308 354 12,100  Level Chicago Center
Sun 12:35:20 PM 42.0203 -87.3267 111° Southeast 318 366 14,200 1,403 Climbing Chicago Center
Sun 12:36:22 PM 41.9872 -87.2100 111° Southeast 330 380 15,000 871 Climbing Chicago Center
Sun 12:37:24 PM 41.9511 -87.0817 111° Southeast 356 410 16,000 1,016 Climbing Chicago Center
Sun 12:38:26 PM 41.9442 -86.9439 94° East 368 423 17,100 968 Climbing Chicago Center
Sun 12:39:28 PM 41.9467 -86.8044 89° East 373 429 18,000 1,016 Climbing Chicago Center
Sun 12:40:30 PM 41.9489 -86.6550 89° East 381 438 19,200 1,016 Climbing Chicago Center
Sun 12:41:32 PM 41.9517 -86.5103 88° East 387 445 20,100 871 Climbing Chicago Center
Sun 12:42:34 PM 41.9539 -86.3608 89° East 395 455 21,000 919 Climbing Chicago Center
Sun 12:43:36 PM 41.9508 -86.1789 91° East 406 467 22,000 912 Climbing Chicago Center
Sun 12:44:39 PM 41.9194 -86.0303 106° East 412 474 22,900 864 Climbing Chicago Center
Sun 12:45:41 PM 41.8897 -85.8800 105° East 415 478 23,800 871 Climbing Chicago Center
Sun 12:46:43 PM 41.8597 -85.7306 105° East 416 479 24,700 823 Climbing Chicago Center
Sun 12:47:45 PM 41.8308 -85.5786 104° East 417 480 25,500 823 Climbing Chicago Center
Sun 12:48:47 PM 41.8008 -85.4261 105° East 417 480 26,400 726 Climbing Chicago Center
Sun 12:49:49 PM 41.7689 -85.2728 106° East 419 482 27,000 290 Climbing Chicago Center
Sun 12:50:51 PM 41.7364 -85.1172 106° East 426 490 27,000  Level Chicago Center
Sun 12:51:53 PM 41.6964 -84.9253 106° East 444 511 27,000  Level Chicago Center
Sun 12:52:55 PM 41.6644 -84.7683 105° East 439 505 27,000  Level Chicago Center
Sun 12:53:57 PM 41.6586 -84.6072 93° East 437 503 27,000  Level Chicago Center
Sun 12:54:59 PM 41.6528 -84.4442 93° East 439 505 27,000  Level Chicago Center
Sun 12:56:01 PM 41.6444 -84.2808 94° East 441 507 27,000  Level Chicago Center
Sun 12:57:03 PM 41.6369 -84.1158 93° East 445 512 27,000  Level Chicago Center
Sun 12:58:06 PM 41.6267 -83.9158 94° East 449 517 27,000  Level Chicago Center
Sun 12:59:08 PM 41.6189 -83.7492 94° East 451 519 27,000  Level Chicago Center
Sun 01:00:24 PM 41.6053 -83.5297 95° East 443 510 27,000  Level Cleveland Center
Sun 01:01:24 PM 41.5925 -83.3653 96° East 443 510 27,000  Level Cleveland Center
Sun 01:02:24 PM 41.5794 -83.2175 97° East 449 517 27,000  Level Cleveland Center
Sun 01:03:24 PM 41.5689 -83.0394 94° East 443 510 27,000  Level Cleveland Center
Sun 01:04:24 PM 41.5556 -82.8781 96° East 443 510 27,000  Level Cleveland Center
Sun 01:05:24 PM 41.5436 -82.7333 96° East 443 510 27,000  Level Cleveland Center
Sun 01:06:24 PM 41.5217 -82.5744 100° East 437 503 27,000  Level Cleveland Center
Sun 01:07:24 PM 41.4528 -82.4478 126° Southeast 411 473 27,000  Level Cleveland Center
Sun 01:08:24 PM 41.3775 -82.3319 131° Southeast 416 479 27,000  Level Cleveland Center
Sun 01:09:24 PM 41.3019 -82.2167 131° Southeast 416 479 27,000  Level Cleveland Center
Sun 01:10:24 PM 41.2225 -82.0822 128° Southeast 416 479 27,000  Level Cleveland Center
Sun 01:11:24 PM 41.1450 -81.9644 131° Southeast 416 479 27,000  Level Cleveland Center
Sun 01:12:24 PM 41.0731 -81.8639 133° Southeast 416 479 27,000  Level Cleveland Center
Sun 01:13:24 PM 40.9972 -81.7442 130° Southeast 422 486 27,000  Level Cleveland Center
Sun 01:14:24 PM 40.9211 -81.6272 131° Southeast 422 486 27,000  Level Cleveland Center
Sun 01:15:24 PM 40.8450 -81.5136 132° Southeast 422 486 27,000 -300 Level Cleveland Center
Sun 01:16:24 PM 40.7708 -81.3975 130° Southeast 422 486 26,400 -800 Descending Cleveland Center
Sun 01:17:24 PM 40.6842 -81.2675 131° Southeast 422 486 25,400 -700 Descending Cleveland Center
Sun 01:18:24 PM 40.6036 -81.1464 131° Southeast 428 493 25,000 -200 Descending Cleveland Center
Sun 01:19:24 PM 40.5269 -81.0339 132° Southeast 428 493 25,000  Level Cleveland Center
Sun 01:20:24 PM 40.4461 -80.9322 136° Southeast 413 475 25,000  Level Cleveland Center
Sun 01:21:24 PM 40.3692 -80.8392 137° Southeast 393 452 25,000  Level Cleveland Center
Sun 01:22:24 PM 40.2964 -80.7519 138° Southeast 372 428 25,000  Level Cleveland Center
Sun 01:23:24 PM 40.2256 -80.6647 137° Southeast 356 410 25,000  Level Cleveland Center
Sun 01:24:24 PM 40.1567 -80.5803 137° Southeast 346 398 25,000  Level Cleveland Center
Sun 01:25:24 PM 40.0858 -80.4936 137° Southeast 346 398 25,000  Level Cleveland Center
Sun 01:26:24 PM 40.0169 -80.4094 137° Southeast 346 398 25,000  Level Cleveland Center
Sun 01:27:24 PM 39.9461 -80.3231 137° Southeast 346 398 25,000  Level Cleveland Center
Sun 01:28:24 PM 39.8750 -80.2367 137° Southeast 346 398 25,000  Level Cleveland Center
Sun 01:29:24 PM 39.8036 -80.1533 138° Southeast 341 392 25,000  Level Cleveland Center
Sun 01:30:24 PM 39.7325 -80.0675 137° Southeast 341 392 25,000  Level Cleveland Center
Sun 01:31:24 PM 39.6633 -79.9844 137° Southeast 341 392 25,000  Level Cleveland Center
Sun 01:32:01 PM 39.6208 -79.9344 138° Southeast 344 396 25,000  Level Washington Center
Sun 01:33:02 PM 39.5575 -79.8392 131° Southeast 339 390 25,000  Level Washington Center
Sun 01:34:00 PM 39.5475 -79.7119 96° East 348 400 25,000  Level Washington Center
Sun 01:35:01 PM 39.5394 -79.5797 94° East 359 413 25,000  Level Washington Center
Sun 01:36:01 PM 39.5292 -79.4444 96° East 370 426 25,000  Level Washington Center
Sun 01:37:02 PM 39.5169 -79.3067 97° East 375 432 25,000  Level Washington Center
Sun 01:38:01 PM 39.4919 -79.1603 102° East 381 438 25,000  Level Washington Center
Sun 01:39:01 PM 39.4689 -79.0244 102° East 376 433 25,000 -694 Level Washington Center
Sun 01:40:02 PM 39.4603 -78.8897 95° East 376 433 23,600 -1,613 Descending Washington Center
Sun 01:41:00 PM 39.4514 -78.7522 95° East 376 433 21,800 -1,765 Descending Washington Center
Sun 01:42:01 PM 39.4422 -78.6175 95° East 376 433 20,100 -1,736 Descending Washington Center
Sun 01:43:01 PM 39.4331 -78.4908 95° East 366 421 18,300 -1,636 Descending Washington Center
Sun 01:44:02 PM 39.4256 -78.3669 94° East 356 410 16,800 -1,587 Descending Washington Center
Sun 01:45:02 PM 39.4139 -78.2347 96° East 351 404 15,100 -864 Descending Washington Center
Sun 01:46:00 PM 39.4044 -78.0922 95° East 375 432 15,100 -202 Level Washington Center
Sun 01:47:01 PM 39.3942 -77.9736 96° East 402 463 14,700 -793 Descending Washington Center
Sun 01:48:01 PM 39.3869 -77.8094 93° East 414 476 13,500 -1,240 Descending Washington Center
Sun 01:49:02 PM 39.4083 -77.6597 79° East 414 476 12,200 -1,210 Descending Washington Center
Sun 01:50:00 PM 39.4275 -77.5206 80° East 414 476 11,100 -555 Descending Washington Center
Sun 01:51:01 PM 39.4442 -77.3786 81° East 402 463 11,100  Level Washington Center
Sun 01:52:02 PM 39.4628 -77.2394 80° East 402 463 11,100 -205 Level Washington Center
Sun 01:52:58 PM 39.4667 -77.0833 88° East 379 436 10,700 -615 Descending Potomac TRACON
Sun 01:53:59 PM 39.4833 -76.9667 79° East 315 362 9,900 -942 Descending Potomac TRACON
Sun 01:54:59 PM 39.4833 -76.8667 90° East 299 344 8,800 -1,050 Descending Potomac TRACON
Sun 01:55:59 PM 39.4833 -76.7500 90° East 302 348 7,800 -991 Descending Potomac TRACON
Sun 01:56:54 PM 39.4833 -76.6667 90° East 296 341 6,900 -942 Descending Potomac TRACON
Sun 01:58:00 PM 39.4833 -76.5500 90° East 289 333 5,900 -950 Descending Potomac TRACON
Sun 01:58:54 PM 39.4167 -76.5167 159° South 258 297 5,000 -947 Descending Potomac TRACON
Sun 01:59:54 PM 39.3500 -76.4833 159° South 253 291 4,100 -500 Descending Potomac TRACON
Sun 02:00:54 PM 39.2833 -76.4500 159° South 253 291 4,000 -50 Descending Potomac TRACON
Sun 02:01:54 PM 39.2167 -76.4333 169° South 248 285 4,000  Level Potomac TRACON

Login

Don't have an account? Register now (free) for customized features, flight alerts, and more!